Terminal Aerodrome Forecast
Issued by NWS

Current Version | Previous Version | Text Only | Print | Product List | Glossary Off
Versions: 1 2 3 4 5 6 7 8 9 10 11 12 13 14 15 16 17 18 19 20 21

000
FTUS41 KILN 031700 AAB
TAFLUK
TAF AMD
KLUK 031703Z 0317/0412 04005KT P6SM VCSH BKN035
      TEMPO 0317/0318 BKN028
     FM031800 04008KT P6SM VCSH SCT028 BKN040
     FM040100 01003KT P6SM SCT040
     FM040600 00000KT 4SM BR SCT040=

USA.gov is the U.S. government's official web portal to all federal, state and local government web resources and services.